createdAt,value
2023-02-04T00:00:09.999Z,5.80
2023-02-04T00:02:38.343Z,5.80
2023-02-04T00:05:05.548Z,5.70
2023-02-04T00:07:32.280Z,5.80
2023-02-04T00:09:59.097Z,5.80
2023-02-04T00:12:25.847Z,5.90
2023-02-04T00:14:52.501Z,5.80
2023-02-04T00:17:19.200Z,5.90
2023-02-04T00:19:45.927Z,5.80
2023-02-04T00:22:12.736Z,5.90
2023-02-04T00:24:39.441Z,5.80
2023-02-04T00:27:06.946Z,5.80
2023-02-04T00:29:33.674Z,5.90
2023-02-04T00:32:00.614Z,5.90
2023-02-04T00:34:27.455Z,5.90
2023-02-04T00:36:54.179Z,5.90
2023-02-04T00:39:21.002Z,5.90
2023-02-04T00:41:47.788Z,5.90
2023-02-04T00:44:14.562Z,6.00
2023-02-04T00:46:42.622Z,6.00
2023-02-04T00:49:10.833Z,6.10
2023-02-04T00:51:44.674Z,6.10
2023-02-04T00:54:11.375Z,6.10
2023-02-04T00:56:38.233Z,6.10
2023-02-04T00:59:04.964Z,6.10
2023-02-04T01:01:31.687Z,6.10
2023-02-04T01:03:58.397Z,6.10
2023-02-04T01:06:25.290Z,6.10
2023-02-04T01:08:52.505Z,6.10
2023-02-04T01:11:19.659Z,6.10
2023-02-04T01:13:46.888Z,6.10
2023-02-04T01:16:13.881Z,6.10
2023-02-04T01:18:41.614Z,6.10
2023-02-04T01:21:08.382Z,6.20
2023-02-04T01:23:35.145Z,6.20
2023-02-04T01:26:01.928Z,6.20
2023-02-04T01:28:28.737Z,6.20
2023-02-04T01:30:55.522Z,6.30
2023-02-04T01:33:22.830Z,6.30
2023-02-04T01:35:49.612Z,6.30
2023-02-04T01:38:16.342Z,6.30
2023-02-04T01:40:43.588Z,6.40
2023-02-04T01:43:11.868Z,6.40
2023-02-04T01:45:39.542Z,6.40
2023-02-04T01:48:07.557Z,6.50
2023-02-04T01:50:35.062Z,6.50
2023-02-04T01:53:02.477Z,6.50
2023-02-04T01:55:32.146Z,6.50
2023-02-04T01:57:59.215Z,6.50
2023-02-04T02:00:29.659Z,6.50
2023-02-04T02:02:57.690Z,6.50
2023-02-04T02:05:40.392Z,6.50
2023-02-04T02:08:08.376Z,6.60
2023-02-04T02:10:37.501Z,6.50
2023-02-04T02:13:05.991Z,6.50
2023-02-04T02:15:32.903Z,6.50
2023-02-04T02:17:59.669Z,6.50
2023-02-04T02:20:29.661Z,6.50
2023-02-04T02:23:06.546Z,6.50
2023-02-04T02:25:33.586Z,6.50
2023-02-04T02:28:01.964Z,6.40
2023-02-04T02:30:29.652Z,6.40
2023-02-04T02:32:57.582Z,6.40
2023-02-04T02:35:24.428Z,6.40
2023-02-04T02:37:51.432Z,6.40
2023-02-04T02:40:18.538Z,6.40
2023-02-04T02:42:48.534Z,6.50
2023-02-04T02:45:27.442Z,6.40
2023-02-04T02:47:56.284Z,6.30
2023-02-04T02:50:26.348Z,6.30
2023-02-04T02:52:53.930Z,6.20
2023-02-04T02:55:23.675Z,6.20
2023-02-04T02:57:52.645Z,6.20
2023-02-04T03:00:25.591Z,6.10
2023-02-04T03:03:16.501Z,6.10
2023-02-04T03:05:45.587Z,6.10
2023-02-04T03:08:14.857Z,6.10
2023-02-04T03:10:43.475Z,6.00
2023-02-04T03:13:12.385Z,6.00
2023-02-04T03:15:39.572Z,6.00
2023-02-04T03:18:06.519Z,6.00
2023-02-04T03:20:33.861Z,5.90
2023-02-04T03:23:00.789Z,5.90
2023-02-04T03:25:28.373Z,5.90
2023-02-04T03:27:57.738Z,5.90
2023-02-04T03:30:25.700Z,5.80
2023-02-04T03:32:53.440Z,5.80
2023-02-04T03:35:21.149Z,5.80
2023-02-04T03:37:47.942Z,5.80
2023-02-04T03:40:15.224Z,5.70
2023-02-04T03:42:41.958Z,5.70
2023-02-04T03:45:09.206Z,5.60
2023-02-04T03:47:35.964Z,5.60
2023-02-04T03:50:02.732Z,5.60
2023-02-04T03:52:29.453Z,5.60
2023-02-04T03:54:56.278Z,5.50
2023-02-04T03:57:23.088Z,5.60
2023-02-04T03:59:49.818Z,5.50
2023-02-04T04:02:16.582Z,5.50
2023-02-04T04:04:43.405Z,5.60
2023-02-04T04:07:10.143Z,5.50
2023-02-04T04:09:36.830Z,5.50
2023-02-04T04:12:04.575Z,5.50
2023-02-04T04:14:31.360Z,5.40
2023-02-04T04:16:58.139Z,5.50
2023-02-04T04:19:24.997Z,5.40
2023-02-04T04:21:51.843Z,5.40
2023-02-04T04:24:18.702Z,5.30
2023-02-04T04:26:45.499Z,5.30
2023-02-04T04:29:12.200Z,5.30
2023-02-04T04:31:39.040Z,5.30
2023-02-04T04:34:05.881Z,5.30
2023-02-04T04:36:32.672Z,5.30
2023-02-04T04:38:59.845Z,5.20
2023-02-04T04:41:26.683Z,5.20
2023-02-04T04:43:53.531Z,5.20
2023-02-04T04:46:20.406Z,5.20
2023-02-04T04:48:47.193Z,5.20
2023-02-04T04:51:14.153Z,5.20
2023-02-04T04:53:41.112Z,5.20
2023-02-04T04:56:08.092Z,5.20
2023-02-04T04:58:34.903Z,5.20
2023-02-04T05:01:01.663Z,5.20
2023-02-04T05:03:28.440Z,5.20
2023-02-04T05:05:55.164Z,5.20
2023-02-04T05:08:21.916Z,5.10
2023-02-04T05:10:48.808Z,5.10
2023-02-04T05:13:16.081Z,5.10
2023-02-04T05:15:42.844Z,5.00
2023-02-04T05:18:09.688Z,5.10
2023-02-04T05:20:36.448Z,5.00
2023-02-04T05:23:05.489Z,5.00
2023-02-04T05:25:32.625Z,5.00
2023-02-04T05:27:59.473Z,4.90
2023-02-04T05:30:26.299Z,5.00
2023-02-04T05:32:53.287Z,5.00
2023-02-04T05:35:20.576Z,4.90
2023-02-04T05:37:47.296Z,4.90
2023-02-04T05:40:14.592Z,5.10
2023-02-04T05:42:41.979Z,5.10
2023-02-04T05:45:15.876Z,5.10
2023-02-04T05:47:42.920Z,5.10
2023-02-04T05:50:09.912Z,5.10
2023-02-04T05:52:36.658Z,5.10
2023-02-04T05:55:03.633Z,5.10
2023-02-04T05:57:30.427Z,5.10
2023-02-04T05:59:57.136Z,5.10
2023-02-04T06:02:23.894Z,5.20
2023-02-04T06:04:50.724Z,5.20
2023-02-04T06:07:17.477Z,5.20
2023-02-04T06:09:44.821Z,5.20
2023-02-04T06:12:11.663Z,5.30
2023-02-04T06:14:38.413Z,5.30
2023-02-04T06:17:05.159Z,5.30
2023-02-04T06:19:32.059Z,5.30
2023-02-04T06:21:58.854Z,5.30
2023-02-04T06:24:25.544Z,5.20
2023-02-04T06:26:52.257Z,5.20
2023-02-04T06:29:19.109Z,5.20
2023-02-04T06:31:47.194Z,5.20
2023-02-04T06:34:14.162Z,5.20
2023-02-04T06:36:41.044Z,5.20
2023-02-04T06:39:07.761Z,5.20
2023-02-04T06:41:34.477Z,5.20
2023-02-04T06:44:01.219Z,5.20
2023-02-04T06:46:28.049Z,5.20
2023-02-04T06:48:54.902Z,5.20
2023-02-04T06:51:21.637Z,5.20
2023-02-04T06:53:48.403Z,5.20
2023-02-04T06:56:15.076Z,5.20
2023-02-04T06:58:41.815Z,5.30
2023-02-04T07:01:08.671Z,5.20
2023-02-04T07:03:35.477Z,5.20
2023-02-04T07:06:02.199Z,5.20
2023-02-04T07:08:28.960Z,5.20
2023-02-04T07:10:55.673Z,5.30
2023-02-04T07:13:22.578Z,5.40
2023-02-04T07:15:49.815Z,5.40
2023-02-04T07:18:16.739Z,5.50
2023-02-04T07:20:43.436Z,5.50
2023-02-04T07:23:10.175Z,5.50
2023-02-04T07:25:36.934Z,5.50
2023-02-04T07:28:05.626Z,5.50
2023-02-04T07:30:33.234Z,5.50
2023-02-04T07:33:00.321Z,5.50
2023-02-04T07:35:27.213Z,5.60
2023-02-04T07:37:54.021Z,5.60
2023-02-04T07:40:21.859Z,5.60
2023-02-04T07:42:48.571Z,5.60
2023-02-04T07:45:15.399Z,5.60
2023-02-04T07:47:42.092Z,5.70
2023-02-04T07:50:09.275Z,5.70
2023-02-04T07:52:35.993Z,5.80
2023-02-04T07:55:02.812Z,5.80
2023-02-04T07:57:30.109Z,5.80
2023-02-04T07:59:57.059Z,5.90
2023-02-04T08:02:24.059Z,5.90
2023-02-04T08:04:51.200Z,5.90
2023-02-04T08:07:18.123Z,6.00
2023-02-04T08:09:44.854Z,6.10
2023-02-04T08:12:11.585Z,6.10
2023-02-04T08:14:38.333Z,6.20
2023-02-04T08:17:05.094Z,6.30
2023-02-04T08:19:31.938Z,6.30
2023-02-04T08:21:58.818Z,6.40
2023-02-04T08:24:25.546Z,6.40
2023-02-04T08:26:52.399Z,6.50
2023-02-04T08:29:19.581Z,6.40
2023-02-04T08:31:47.788Z,6.40
2023-02-04T08:34:14.628Z,6.50
2023-02-04T08:36:41.512Z,6.50
2023-02-04T08:39:08.290Z,6.60
2023-02-04T08:41:35.082Z,6.70
2023-02-04T08:44:02.137Z,6.70
2023-02-04T08:46:29.405Z,6.70
2023-02-04T08:48:56.895Z,6.70
2023-02-04T08:51:23.620Z,6.70
2023-02-04T08:53:50.442Z,6.70
2023-02-04T08:56:19.161Z,6.70
2023-02-04T08:58:46.453Z,6.70
2023-02-04T09:01:13.205Z,6.70
2023-02-04T09:03:40.308Z,6.80
2023-02-04T09:06:07.347Z,6.80
2023-02-04T09:08:34.411Z,6.90
2023-02-04T09:11:01.157Z,7.00
2023-02-04T09:13:27.918Z,7.00
2023-02-04T09:15:54.833Z,7.10
2023-02-04T09:18:22.646Z,7.00
2023-02-04T09:20:49.825Z,6.90
2023-02-04T09:23:17.284Z,7.00
2023-02-04T09:25:45.699Z,7.00
2023-02-04T09:28:14.200Z,6.90
2023-02-04T09:30:42.208Z,6.90
2023-02-04T09:33:10.659Z,6.90
2023-02-04T09:35:37.805Z,7.00
2023-02-04T09:38:05.353Z,7.00
2023-02-04T09:40:36.120Z,7.00
2023-02-04T09:43:04.877Z,7.00
2023-02-04T09:45:36.015Z,7.10
2023-02-04T09:48:05.184Z,7.00
2023-02-04T09:50:33.225Z,7.00
2023-02-04T09:53:05.486Z,7.00
2023-02-04T09:55:35.865Z,7.10
2023-02-04T09:58:03.240Z,7.30
2023-02-04T10:00:31.639Z,7.10
2023-02-04T10:03:00.792Z,7.10
2023-02-04T10:05:33.594Z,7.20
2023-02-04T10:08:00.770Z,7.10
2023-02-04T10:10:28.460Z,7.00
2023-02-04T10:13:02.153Z,6.90
2023-02-04T10:15:29.245Z,6.80
2023-02-04T10:18:01.702Z,6.80
2023-02-04T10:20:28.449Z,6.80
2023-02-04T10:22:56.276Z,6.90
2023-02-04T10:25:25.333Z,6.90
2023-02-04T10:27:53.333Z,7.00
2023-02-04T10:30:26.860Z,6.90
2023-02-04T10:32:54.406Z,6.90
2023-02-04T10:35:22.285Z,6.90
2023-02-04T10:38:02.077Z,6.90
2023-02-04T10:40:33.868Z,6.90
2023-02-04T10:43:10.181Z,6.80
2023-02-04T10:45:37.575Z,6.70
2023-02-04T10:48:04.857Z,6.90
2023-02-04T10:50:32.020Z,6.90
2023-02-04T10:53:18.962Z,6.90
2023-02-04T10:55:47.808Z,6.80
2023-02-04T10:58:25.871Z,6.80
2023-02-04T11:00:52.585Z,6.90
2023-02-04T11:03:32.802Z,6.90
2023-02-04T11:06:01.751Z,6.90
2023-02-04T11:08:35.471Z,7.00
2023-02-04T11:11:08.841Z,7.10
2023-02-04T11:13:43.337Z,7.00
2023-02-04T11:16:19.069Z,7.10
2023-02-04T11:18:46.464Z,7.10
2023-02-04T11:21:23.074Z,7.00
2023-02-04T11:23:50.552Z,6.90
2023-02-04T11:26:34.006Z,6.80
2023-02-04T11:29:00.753Z,6.60
2023-02-04T11:31:27.617Z,6.60
2023-02-04T11:34:26.800Z,6.60
2023-02-04T11:36:59.035Z,6.50
2023-02-04T11:39:34.129Z,6.40
2023-02-04T11:42:01.507Z,6.40
2023-02-04T11:44:29.014Z,6.40
2023-02-04T11:46:56.561Z,6.50
2023-02-04T11:49:26.708Z,6.50
2023-02-04T11:52:08.857Z,6.60
2023-02-04T11:54:36.544Z,6.60
2023-02-04T11:57:04.175Z,6.70
2023-02-04T11:59:31.188Z,6.50
2023-02-04T12:02:19.279Z,6.50
2023-02-04T12:04:57.101Z,6.40
2023-02-04T12:07:26.797Z,6.30
2023-02-04T12:09:54.192Z,6.30
2023-02-04T12:12:31.135Z,6.30
2023-02-04T12:15:02.103Z,6.00
2023-02-04T12:17:28.879Z,6.00
2023-02-04T12:19:55.635Z,5.90
2023-02-04T12:22:22.465Z,6.10
2023-02-04T12:24:49.263Z,5.80
2023-02-04T12:27:16.003Z,5.90
2023-02-04T12:29:42.761Z,5.90
2023-02-04T12:32:09.593Z,5.90
2023-02-04T12:34:36.309Z,5.70
2023-02-04T12:37:03.086Z,5.50
2023-02-04T12:39:31.926Z,5.40
2023-02-04T12:42:13.116Z,5.40
2023-02-04T12:44:39.935Z,5.50
2023-02-04T12:47:06.705Z,5.70
2023-02-04T12:49:33.398Z,5.80
2023-02-04T12:52:02.242Z,6.00
2023-02-04T12:54:28.990Z,6.20
2023-02-04T12:56:58.264Z,6.20
2023-02-04T12:59:26.061Z,6.00
2023-02-04T13:01:52.960Z,6.00
2023-02-04T13:04:19.744Z,6.00
2023-02-04T13:06:46.454Z,5.90
2023-02-04T13:09:13.184Z,5.50
2023-02-04T13:11:39.981Z,5.30
2023-02-04T13:14:06.675Z,5.30
2023-02-04T13:16:33.496Z,5.40
2023-02-04T13:19:00.276Z,5.40
2023-02-04T13:21:27.057Z,5.40
2023-02-04T13:23:54.184Z,5.50
2023-02-04T13:26:20.934Z,5.50
2023-02-04T13:28:47.658Z,5.60
2023-02-04T13:31:14.399Z,5.60
2023-02-04T13:33:41.218Z,5.50
2023-02-04T13:36:08.092Z,5.40
2023-02-04T13:38:34.925Z,5.50
2023-02-04T13:41:01.714Z,5.60
2023-02-04T13:43:28.493Z,5.60
2023-02-04T13:45:55.353Z,5.60
2023-02-04T13:48:22.113Z,5.60
2023-02-04T13:50:50.857Z,5.50
2023-02-04T13:53:17.748Z,5.50
2023-02-04T13:55:44.589Z,5.40
2023-02-04T13:58:11.421Z,5.50
2023-02-04T14:00:38.192Z,5.60
2023-02-04T14:03:04.993Z,5.50
2023-02-04T14:05:31.750Z,5.60
2023-02-04T14:07:58.591Z,5.70
2023-02-04T14:10:26.857Z,5.90
2023-02-04T14:12:54.190Z,5.90
2023-02-04T14:15:21.067Z,6.10
2023-02-04T14:17:47.875Z,6.10
2023-02-04T14:20:14.668Z,5.90
2023-02-04T14:22:41.443Z,5.90
2023-02-04T14:25:10.142Z,5.90
2023-02-04T14:27:38.459Z,6.00
2023-02-04T14:30:06.248Z,6.10
2023-02-04T14:32:33.003Z,6.30
2023-02-04T14:34:59.735Z,6.50
2023-02-04T14:37:28.567Z,6.60
2023-02-04T14:39:56.135Z,6.40
2023-02-04T14:42:22.987Z,6.20
2023-02-04T14:44:49.845Z,6.20
2023-02-04T14:47:16.560Z,6.30
2023-02-04T14:49:43.306Z,6.20
2023-02-04T14:52:11.523Z,6.20
2023-02-04T14:54:38.536Z,6.10
2023-02-04T14:57:05.368Z,6.10
2023-02-04T14:59:32.256Z,6.00
2023-02-04T15:01:58.972Z,6.10
2023-02-04T15:04:25.721Z,6.10
2023-02-04T15:06:53.961Z,6.10
2023-02-04T15:09:20.744Z,5.90
2023-02-04T15:11:47.560Z,5.70
2023-02-04T15:14:14.281Z,5.70
2023-02-04T15:16:43.096Z,5.60
2023-02-04T15:19:10.371Z,5.60
2023-02-04T15:21:37.105Z,5.60
2023-02-04T15:24:03.928Z,5.70
2023-02-04T15:26:30.865Z,5.70
2023-02-04T15:28:57.773Z,5.60
2023-02-04T15:31:26.079Z,5.50
2023-02-04T15:33:52.993Z,5.40
2023-02-04T15:36:19.982Z,5.30
2023-02-04T15:38:46.801Z,5.30
2023-02-04T15:41:13.642Z,5.20
2023-02-04T15:43:40.500Z,5.20
2023-02-04T15:46:07.856Z,5.10
2023-02-04T15:48:34.730Z,5.00
2023-02-04T15:51:01.495Z,4.90
2023-02-04T15:53:28.270Z,4.70
2023-02-04T15:55:54.988Z,4.70
2023-02-04T15:58:21.740Z,4.70
2023-02-04T16:00:48.578Z,4.70
2023-02-04T16:03:15.309Z,4.70
2023-02-04T16:05:42.071Z,4.70
2023-02-04T16:08:08.907Z,4.70
2023-02-04T16:10:35.812Z,4.70
2023-02-04T16:13:02.818Z,4.60
2023-02-04T16:15:29.625Z,4.70
2023-02-04T16:17:57.117Z,4.60
2023-02-04T16:20:23.869Z,4.60
2023-02-04T16:22:50.741Z,4.50
2023-02-04T16:25:17.556Z,4.50
2023-02-04T16:27:44.347Z,4.40
2023-02-04T16:30:12.426Z,4.40
2023-02-04T16:32:39.236Z,4.30
2023-02-04T16:35:06.809Z,4.30
2023-02-04T16:37:34.303Z,4.20
2023-02-04T16:40:01.410Z,4.20
2023-02-04T16:42:29.628Z,4.20
2023-02-04T16:44:56.322Z,4.10
2023-02-04T16:47:23.465Z,4.00
2023-02-04T16:49:54.229Z,4.00
2023-02-04T16:52:21.232Z,3.90
2023-02-04T16:54:47.955Z,3.90
2023-02-04T16:57:15.265Z,3.90
2023-02-04T16:59:42.066Z,3.90
2023-02-04T17:02:10.144Z,3.90
2023-02-04T17:04:36.937Z,3.90
2023-02-04T17:07:04.199Z,3.80
2023-02-04T17:09:31.227Z,3.80
2023-02-04T17:11:58.316Z,3.70
2023-02-04T17:14:25.178Z,3.70
2023-02-04T17:16:51.889Z,3.70
2023-02-04T17:19:19.167Z,3.70
2023-02-04T17:21:46.697Z,3.70
2023-02-04T17:24:13.579Z,3.70
2023-02-04T17:26:40.583Z,3.70
2023-02-04T17:29:12.335Z,3.70
2023-02-04T17:31:40.087Z,3.80
2023-02-04T17:34:06.895Z,3.80
2023-02-04T17:36:34.538Z,3.80
2023-02-04T17:39:01.410Z,3.90
2023-02-04T17:41:28.487Z,3.80
2023-02-04T17:43:55.503Z,3.60
2023-02-04T17:46:22.262Z,3.60
2023-02-04T17:48:49.024Z,3.50
2023-02-04T17:51:15.769Z,3.50
2023-02-04T17:53:42.717Z,3.40
2023-02-04T17:56:14.394Z,3.40
2023-02-04T17:58:42.243Z,3.40
2023-02-04T18:01:18.090Z,3.40
2023-02-04T18:03:46.464Z,3.50
2023-02-04T18:06:22.298Z,3.50
2023-02-04T18:08:50.702Z,3.60
2023-02-04T18:11:23.004Z,3.60
2023-02-04T18:13:50.217Z,3.60
2023-02-04T18:16:22.050Z,3.60
2023-02-04T18:18:49.299Z,3.60
2023-02-04T18:21:29.267Z,3.60
2023-02-04T18:24:11.167Z,3.60
2023-02-04T18:26:53.028Z,3.60
2023-02-04T18:29:38.438Z,3.60
2023-02-04T18:32:43.667Z,3.60
2023-02-04T18:35:22.805Z,3.50
2023-02-04T18:37:51.865Z,3.40
2023-02-04T18:40:24.483Z,3.30
2023-02-04T18:43:22.555Z,3.30
2023-02-04T18:45:49.327Z,3.40
2023-02-04T18:48:16.398Z,3.40
2023-02-04T18:50:44.446Z,3.50
2023-02-04T18:53:11.151Z,3.50
2023-02-04T18:55:40.210Z,3.60
2023-02-04T18:58:18.967Z,3.60
2023-02-04T19:00:52.298Z,3.60
2023-02-04T19:03:19.149Z,3.60
2023-02-04T19:05:50.260Z,3.60
2023-02-04T19:08:19.543Z,3.60
2023-02-04T19:10:46.393Z,3.70
2023-02-04T19:13:26.413Z,3.70
2023-02-04T19:15:59.943Z,3.70
2023-02-04T19:18:37.648Z,3.70
2023-02-04T19:21:22.184Z,3.70
2023-02-04T19:23:59.023Z,3.80
2023-02-04T19:26:29.256Z,3.70
2023-02-04T19:28:56.196Z,3.70
2023-02-04T19:31:32.606Z,3.70
2023-02-04T19:34:16.268Z,3.80
2023-02-04T19:36:42.996Z,3.80
2023-02-04T19:39:28.003Z,3.80
2023-02-04T19:41:55.468Z,3.70
2023-02-04T19:44:35.005Z,3.60
2023-02-04T19:47:24.576Z,3.40
2023-02-04T19:49:55.253Z,3.30
2023-02-04T19:52:48.179Z,3.40
2023-02-04T19:55:17.985Z,3.50
2023-02-04T19:57:46.477Z,3.50
2023-02-04T20:00:37.316Z,3.60
2023-02-04T20:03:31.099Z,3.70
2023-02-04T20:06:05.617Z,3.70
2023-02-04T20:08:45.824Z,3.70
2023-02-04T20:11:15.618Z,3.70
2023-02-04T20:13:42.379Z,3.60
2023-02-04T20:16:38.712Z,3.60
2023-02-04T20:19:28.828Z,3.70
2023-02-04T20:22:23.473Z,3.60
2023-02-04T20:24:59.010Z,3.60
2023-02-04T20:27:37.304Z,3.60
2023-02-04T20:30:11.879Z,3.60
2023-02-04T20:32:53.494Z,3.60
2023-02-04T20:35:20.143Z,3.60
2023-02-04T20:37:55.232Z,3.60
2023-02-04T20:40:27.008Z,3.60
2023-02-04T20:43:14.179Z,3.60
2023-02-04T20:45:49.936Z,3.60
2023-02-04T20:48:16.715Z,3.70
2023-02-04T20:50:52.839Z,3.70
2023-02-04T20:53:22.830Z,3.70
2023-02-04T20:55:55.634Z,3.80
2023-02-04T20:58:28.679Z,3.80
2023-02-04T21:00:56.105Z,3.80
2023-02-04T21:03:26.019Z,3.90
2023-02-04T21:05:54.240Z,3.90
2023-02-04T21:08:20.961Z,3.80
2023-02-04T21:10:47.983Z,3.80
2023-02-04T21:13:14.714Z,3.80
2023-02-04T21:15:41.464Z,3.80
2023-02-04T21:18:08.590Z,3.70
2023-02-04T21:20:37.040Z,3.80
2023-02-04T21:23:05.073Z,3.80
2023-02-04T21:25:32.361Z,3.80
2023-02-04T21:27:59.653Z,3.80
2023-02-04T21:30:30.280Z,3.80
2023-02-04T21:32:58.267Z,3.80
2023-02-04T21:35:25.111Z,3.70
2023-02-04T21:37:52.525Z,3.70
2023-02-04T21:40:22.024Z,3.70
2023-02-04T21:42:49.800Z,3.60
2023-02-04T21:45:18.707Z,3.50
2023-02-04T21:47:46.401Z,3.50
2023-02-04T21:50:14.609Z,3.40
2023-02-04T21:52:42.780Z,3.30
2023-02-04T21:55:10.894Z,3.20
2023-02-04T21:57:38.113Z,3.20
2023-02-04T22:00:06.550Z,3.20
2023-02-04T22:02:33.413Z,3.30
2023-02-04T22:05:00.386Z,3.40
2023-02-04T22:07:27.236Z,3.40
2023-02-04T22:09:53.939Z,3.30
2023-02-04T22:12:20.662Z,3.30
2023-02-04T22:15:05.706Z,3.30
2023-02-04T22:17:32.627Z,3.40
2023-02-04T22:19:59.497Z,3.40
2023-02-04T22:22:26.444Z,3.30
2023-02-04T22:24:53.241Z,3.30
2023-02-04T22:27:20.057Z,3.30
2023-02-04T22:29:46.749Z,3.20
2023-02-04T22:32:13.591Z,3.20
2023-02-04T22:34:40.300Z,3.10
2023-02-04T22:37:07.050Z,3.00
2023-02-04T22:39:33.931Z,3.00
2023-02-04T22:42:00.817Z,2.90
2023-02-04T22:44:27.604Z,2.80
2023-02-04T22:46:54.463Z,2.80
2023-02-04T22:49:21.211Z,2.70
2023-02-04T22:51:48.009Z,2.60
2023-02-04T22:54:14.822Z,2.60
2023-02-04T22:56:41.510Z,2.50
2023-02-04T22:59:08.269Z,2.50
2023-02-04T23:01:34.969Z,2.40
2023-02-04T23:04:01.788Z,2.30
2023-02-04T23:06:28.519Z,2.30
2023-02-04T23:08:55.342Z,2.20
2023-02-04T23:11:23.303Z,2.10
2023-02-04T23:13:50.396Z,2.00
2023-02-04T23:16:19.057Z,2.00
2023-02-04T23:18:46.204Z,2.00
2023-02-04T23:21:13.705Z,2.00
2023-02-04T23:23:40.955Z,2.00
2023-02-04T23:26:08.517Z,1.90
2023-02-04T23:28:35.234Z,1.90
2023-02-04T23:31:02.024Z,1.90
2023-02-04T23:33:28.890Z,1.90
2023-02-04T23:35:55.750Z,1.90
2023-02-04T23:38:22.640Z,1.80
2023-02-04T23:40:49.363Z,1.80
2023-02-04T23:43:16.107Z,1.70
2023-02-04T23:45:45.297Z,1.70
2023-02-04T23:48:12.468Z,1.60
2023-02-04T23:50:39.226Z,1.50
2023-02-04T23:53:06.012Z,1.50
2023-02-04T23:55:33.225Z,1.40
2023-02-04T23:58:00.162Z,1.40
